sensor_id;sensor_type;location;lat;lon;timestamp;temperature;humidity
18575;DHT22;9417;16.484;102.872;2023-03-17T00:01:04;23.40;86.40
18575;DHT22;9417;16.484;102.872;2023-03-17T00:03:18;23.40;86.30
18575;DHT22;9417;16.484;102.872;2023-03-17T00:05:29;23.50;86.20
18575;DHT22;9417;16.484;102.872;2023-03-17T00:07:36;23.50;86.10
18575;DHT22;9417;16.484;102.872;2023-03-17T00:09:44;23.50;85.90
18575;DHT22;9417;16.484;102.872;2023-03-17T00:11:52;23.60;85.90
18575;DHT22;9417;16.484;102.872;2023-03-17T00:14:00;23.60;86.30
18575;DHT22;9417;16.484;102.872;2023-03-17T00:16:14;23.70;85.70
18575;DHT22;9417;16.484;102.872;2023-03-17T00:18:24;23.70;85.80
18575;DHT22;9417;16.484;102.872;2023-03-17T00:20:32;23.80;85.70
18575;DHT22;9417;16.484;102.872;2023-03-17T00:22:39;23.80;85.70
18575;DHT22;9417;16.484;102.872;2023-03-17T00:24:46;23.90;85.60
18575;DHT22;9417;16.484;102.872;2023-03-17T00:26:54;23.90;85.70
18575;DHT22;9417;16.484;102.872;2023-03-17T00:29:01;24.00;85.50
18575;DHT22;9417;16.484;102.872;2023-03-17T00:31:13;24.10;85.20
18575;DHT22;9417;16.484;102.872;2023-03-17T00:33:25;24.10;85.00
18575;DHT22;9417;16.484;102.872;2023-03-17T00:35:32;24.20;84.70
18575;DHT22;9417;16.484;102.872;2023-03-17T00:37:39;24.20;84.40
18575;DHT22;9417;16.484;102.872;2023-03-17T00:39:47;24.30;83.90
18575;DHT22;9417;16.484;102.872;2023-03-17T00:41:56;24.40;83.30
18575;DHT22;9417;16.484;102.872;2023-03-17T00:44:03;24.40;82.80
18575;DHT22;9417;16.484;102.872;2023-03-17T00:46:13;24.50;82.30
18575;DHT22;9417;16.484;102.872;2023-03-17T00:48:21;24.60;82.10
18575;DHT22;9417;16.484;102.872;2023-03-17T00:50:30;24.60;81.80
18575;DHT22;9417;16.484;102.872;2023-03-17T00:52:39;24.70;81.70
18575;DHT22;9417;16.484;102.872;2023-03-17T00:54:46;24.70;81.60
18575;DHT22;9417;16.484;102.872;2023-03-17T00:56:57;24.80;81.20
18575;DHT22;9417;16.484;102.872;2023-03-17T00:59:04;24.80;80.80
18575;DHT22;9417;16.484;102.872;2023-03-17T01:01:18;24.80;80.20
18575;DHT22;9417;16.484;102.872;2023-03-17T01:03:26;24.90;80.00
18575;DHT22;9417;16.484;102.872;2023-03-17T01:05:36;24.90;79.70
18575;DHT22;9417;16.484;102.872;2023-03-17T01:07:45;25.00;79.50
18575;DHT22;9417;16.484;102.872;2023-03-17T01:09:57;25.00;79.30
18575;DHT22;9417;16.484;102.872;2023-03-17T01:12:10;25.10;79.10
18575;DHT22;9417;16.484;102.872;2023-03-17T01:14:18;25.10;79.10
18575;DHT22;9417;16.484;102.872;2023-03-17T01:16:25;25.10;78.80
18575;DHT22;9417;16.484;102.872;2023-03-17T01:18:33;25.20;78.70
18575;DHT22;9417;16.484;102.872;2023-03-17T01:20:43;25.30;78.50
18575;DHT22;9417;16.484;102.872;2023-03-17T01:22:51;25.30;78.20
18575;DHT22;9417;16.484;102.872;2023-03-17T01:25:02;25.40;77.90
18575;DHT22;9417;16.484;102.872;2023-03-17T01:27:09;25.40;77.50
18575;DHT22;9417;16.484;102.872;2023-03-17T01:29:22;25.40;77.20
18575;DHT22;9417;16.484;102.872;2023-03-17T01:31:29;25.50;76.80
18575;DHT22;9417;16.484;102.872;2023-03-17T01:33:40;25.60;76.60
18575;DHT22;9417;16.484;102.872;2023-03-17T01:35:50;25.60;76.40
18575;DHT22;9417;16.484;102.872;2023-03-17T01:37:57;25.70;76.10
18575;DHT22;9417;16.484;102.872;2023-03-17T01:40:05;25.70;76.00
18575;DHT22;9417;16.484;102.872;2023-03-17T01:42:23;25.80;75.90
18575;DHT22;9417;16.484;102.872;2023-03-17T01:44:56;25.80;75.50
18575;DHT22;9417;16.484;102.872;2023-03-17T01:47:03;25.90;75.10
18575;DHT22;9417;16.484;102.872;2023-03-17T01:49:19;25.90;75.00
18575;DHT22;9417;16.484;102.872;2023-03-17T01:51:32;26.00;74.90
18575;DHT22;9417;16.484;102.872;2023-03-17T01:53:41;26.00;74.70
18575;DHT22;9417;16.484;102.872;2023-03-17T01:55:52;26.10;74.50
18575;DHT22;9417;16.484;102.872;2023-03-17T01:58:04;26.10;74.40
18575;DHT22;9417;16.484;102.872;2023-03-17T02:00:15;26.20;74.20
18575;DHT22;9417;16.484;102.872;2023-03-17T02:02:26;26.20;74.00
18575;DHT22;9417;16.484;102.872;2023-03-17T02:04:35;26.30;73.80
18575;DHT22;9417;16.484;102.872;2023-03-17T02:06:47;26.30;73.60
18575;DHT22;9417;16.484;102.872;2023-03-17T02:09:02;26.40;73.70
18575;DHT22;9417;16.484;102.872;2023-03-17T02:11:10;26.50;73.50
18575;DHT22;9417;16.484;102.872;2023-03-17T02:13:20;26.50;73.30
18575;DHT22;9417;16.484;102.872;2023-03-17T02:15:36;26.60;73.00
18575;DHT22;9417;16.484;102.872;2023-03-17T02:17:44;26.60;72.90
18575;DHT22;9417;16.484;102.872;2023-03-17T02:19:53;26.70;72.80
18575;DHT22;9417;16.484;102.872;2023-03-17T02:22:06;26.80;72.60
18575;DHT22;9417;16.484;102.872;2023-03-17T02:24:22;26.80;72.40
18575;DHT22;9417;16.484;102.872;2023-03-17T02:26:34;26.90;72.40
18575;DHT22;9417;16.484;102.872;2023-03-17T02:28:42;26.90;72.00
18575;DHT22;9417;16.484;102.872;2023-03-17T02:30:53;27.00;71.80
18575;DHT22;9417;16.484;102.872;2023-03-17T02:33:01;27.10;71.10
18575;DHT22;9417;16.484;102.872;2023-03-17T02:35:10;27.10;71.30
18575;DHT22;9417;16.484;102.872;2023-03-17T02:37:20;27.20;71.20
18575;DHT22;9417;16.484;102.872;2023-03-17T02:39:27;27.20;70.90
18575;DHT22;9417;16.484;102.872;2023-03-17T02:41:35;27.30;70.80
18575;DHT22;9417;16.484;102.872;2023-03-17T02:43:42;27.30;70.80
18575;DHT22;9417;16.484;102.872;2023-03-17T02:46:05;27.40;70.70
18575;DHT22;9417;16.484;102.872;2023-03-17T02:48:28;27.40;70.30
18575;DHT22;9417;16.484;102.872;2023-03-17T02:50:49;27.50;70.10
18575;DHT22;9417;16.484;102.872;2023-03-17T02:53:17;27.50;70.20
18575;DHT22;9417;16.484;102.872;2023-03-17T02:55:25;27.50;70.00
18575;DHT22;9417;16.484;102.872;2023-03-17T02:57:35;27.50;70.00
18575;DHT22;9417;16.484;102.872;2023-03-17T02:59:52;27.50;69.90
18575;DHT22;9417;16.484;102.872;2023-03-17T03:01:59;27.60;69.70
18575;DHT22;9417;16.484;102.872;2023-03-17T03:04:07;27.60;69.80
18575;DHT22;9417;16.484;102.872;2023-03-17T03:06:15;27.70;69.80
18575;DHT22;9417;16.484;102.872;2023-03-17T03:08:30;27.70;69.40
18575;DHT22;9417;16.484;102.872;2023-03-17T03:10:41;27.70;69.40
18575;DHT22;9417;16.484;102.872;2023-03-17T03:12:48;27.80;69.50
18575;DHT22;9417;16.484;102.872;2023-03-17T03:15:09;27.90;69.50
18575;DHT22;9417;16.484;102.872;2023-03-17T03:17:24;28.00;69.70
18575;DHT22;9417;16.484;102.872;2023-03-17T03:19:31;28.00;69.40
18575;DHT22;9417;16.484;102.872;2023-03-17T03:21:45;28.10;69.50
18575;DHT22;9417;16.484;102.872;2023-03-17T03:24:08;28.20;69.30
18575;DHT22;9417;16.484;102.872;2023-03-17T03:26:16;28.30;68.80
18575;DHT22;9417;16.484;102.872;2023-03-17T03:28:37;28.30;68.70
18575;DHT22;9417;16.484;102.872;2023-03-17T03:30:44;28.40;68.70
18575;DHT22;9417;16.484;102.872;2023-03-17T03:32:54;28.40;67.40
18575;DHT22;9417;16.484;102.872;2023-03-17T03:35:01;28.60;67.80
18575;DHT22;9417;16.484;102.872;2023-03-17T03:37:12;28.60;67.80
18575;DHT22;9417;16.484;102.872;2023-03-17T03:39:25;28.80;67.40
18575;DHT22;9417;16.484;102.872;2023-03-17T03:41:32;28.90;67.50
18575;DHT22;9417;16.484;102.872;2023-03-17T03:43:40;28.90;67.00
18575;DHT22;9417;16.484;102.872;2023-03-17T03:45:47;29.00;66.60
18575;DHT22;9417;16.484;102.872;2023-03-17T03:47:59;29.10;66.20
18575;DHT22;9417;16.484;102.872;2023-03-17T03:50:16;29.20;65.60
18575;DHT22;9417;16.484;102.872;2023-03-17T03:52:27;29.30;65.90
18575;DHT22;9417;16.484;102.872;2023-03-17T03:54:45;29.30;64.40
18575;DHT22;9417;16.484;102.872;2023-03-17T03:56:57;29.30;65.00
18575;DHT22;9417;16.484;102.872;2023-03-17T03:59:16;29.40;64.50
18575;DHT22;9417;16.484;102.872;2023-03-17T04:01:38;29.50;64.70
18575;DHT22;9417;16.484;102.872;2023-03-17T04:03:46;29.60;64.90
18575;DHT22;9417;16.484;102.872;2023-03-17T04:05:57;29.70;64.50
18575;DHT22;9417;16.484;102.872;2023-03-17T04:08:06;29.70;64.20
18575;DHT22;9417;16.484;102.872;2023-03-17T04:10:29;29.80;63.90
18575;DHT22;9417;16.484;102.872;2023-03-17T04:12:38;29.80;64.00
18575;DHT22;9417;16.484;102.872;2023-03-17T04:14:45;29.90;63.60
18575;DHT22;9417;16.484;102.872;2023-03-17T04:17:19;30.00;62.10
18575;DHT22;9417;16.484;102.872;2023-03-17T04:19:30;30.10;63.10
18575;DHT22;9417;16.484;102.872;2023-03-17T04:21:39;30.10;62.50
18575;DHT22;9417;16.484;102.872;2023-03-17T04:23:49;30.20;62.30
18575;DHT22;9417;16.484;102.872;2023-03-17T04:26:02;30.20;62.10
18575;DHT22;9417;16.484;102.872;2023-03-17T04:28:20;30.30;61.80
18575;DHT22;9417;16.484;102.872;2023-03-17T04:30:49;30.40;61.70
18575;DHT22;9417;16.484;102.872;2023-03-17T04:32:56;30.50;61.20
18575;DHT22;9417;16.484;102.872;2023-03-17T04:35:04;30.60;61.10
18575;DHT22;9417;16.484;102.872;2023-03-17T04:37:12;30.70;61.10
18575;DHT22;9417;16.484;102.872;2023-03-17T04:39:26;30.70;60.50
18575;DHT22;9417;16.484;102.872;2023-03-17T04:41:36;30.70;59.40
18575;DHT22;9417;16.484;102.872;2023-03-17T04:43:43;30.70;58.50
18575;DHT22;9417;16.484;102.872;2023-03-17T04:45:51;30.80;59.50
18575;DHT22;9417;16.484;102.872;2023-03-17T04:47:58;30.90;59.50
18575;DHT22;9417;16.484;102.872;2023-03-17T04:50:14;30.90;58.90
18575;DHT22;9417;16.484;102.872;2023-03-17T04:52:22;31.00;58.70
18575;DHT22;9417;16.484;102.872;2023-03-17T04:54:29;31.00;58.60
18575;DHT22;9417;16.484;102.872;2023-03-17T04:56:49;31.10;58.40
18575;DHT22;9417;16.484;102.872;2023-03-17T04:58:57;31.20;58.10
18575;DHT22;9417;16.484;102.872;2023-03-17T05:01:08;31.20;57.80
18575;DHT22;9417;16.484;102.872;2023-03-17T05:03:15;31.30;57.50
18575;DHT22;9417;16.484;102.872;2023-03-17T05:05:30;31.40;58.00
18575;DHT22;9417;16.484;102.872;2023-03-17T05:07:41;31.40;57.30
18575;DHT22;9417;16.484;102.872;2023-03-17T05:09:52;31.50;57.70
18575;DHT22;9417;16.484;102.872;2023-03-17T05:12:05;31.60;57.20
18575;DHT22;9417;16.484;102.872;2023-03-17T05:14:13;31.70;56.90
18575;DHT22;9417;16.484;102.872;2023-03-17T05:16:22;31.70;56.50
18575;DHT22;9417;16.484;102.872;2023-03-17T05:18:31;31.80;56.10
18575;DHT22;9417;16.484;102.872;2023-03-17T05:20:38;31.90;55.70
18575;DHT22;9417;16.484;102.872;2023-03-17T05:22:48;31.90;54.80
18575;DHT22;9417;16.484;102.872;2023-03-17T05:24:55;32.00;55.10
18575;DHT22;9417;16.484;102.872;2023-03-17T05:27:15;32.00;55.40
18575;DHT22;9417;16.484;102.872;2023-03-17T05:29:23;32.00;55.30
18575;DHT22;9417;16.484;102.872;2023-03-17T05:31:33;32.00;55.10
18575;DHT22;9417;16.484;102.872;2023-03-17T05:33:47;32.10;55.10
18575;DHT22;9417;16.484;102.872;2023-03-17T05:36:10;32.10;54.50
18575;DHT22;9417;16.484;102.872;2023-03-17T05:38:17;32.20;54.80
18575;DHT22;9417;16.484;102.872;2023-03-17T05:40:37;32.30;54.60
18575;DHT22;9417;16.484;102.872;2023-03-17T05:42:47;32.30;54.20
18575;DHT22;9417;16.484;102.872;2023-03-17T05:45:03;32.30;54.20
18575;DHT22;9417;16.484;102.872;2023-03-17T05:47:13;32.20;54.40
18575;DHT22;9417;16.484;102.872;2023-03-17T05:49:23;32.20;54.40
18575;DHT22;9417;16.484;102.872;2023-03-17T05:51:35;32.20;54.60
18575;DHT22;9417;16.484;102.872;2023-03-17T05:53:45;32.20;55.90
18575;DHT22;9417;16.484;102.872;2023-03-17T05:56:02;32.10;55.40
18575;DHT22;9417;16.484;102.872;2023-03-17T05:58:18;32.20;55.30
18575;DHT22;9417;16.484;102.872;2023-03-17T06:00:39;32.40;54.80
18575;DHT22;9417;16.484;102.872;2023-03-17T06:02:56;32.50;54.70
18575;DHT22;9417;16.484;102.872;2023-03-17T06:05:06;32.60;54.30
18575;DHT22;9417;16.484;102.872;2023-03-17T06:07:20;32.70;54.10
18575;DHT22;9417;16.484;102.872;2023-03-17T06:09:28;32.70;54.40
18575;DHT22;9417;16.484;102.872;2023-03-17T06:11:49;32.70;53.30
18575;DHT22;9417;16.484;102.872;2023-03-17T06:14:02;32.70;54.00
18575;DHT22;9417;16.484;102.872;2023-03-17T06:16:10;32.60;54.60
18575;DHT22;9417;16.484;102.872;2023-03-17T06:18:24;32.60;54.50
18575;DHT22;9417;16.484;102.872;2023-03-17T06:20:33;32.70;53.20
18575;DHT22;9417;16.484;102.872;2023-03-17T06:22:41;32.80;53.40
18575;DHT22;9417;16.484;102.872;2023-03-17T06:25:08;32.90;53.10
18575;DHT22;9417;16.484;102.872;2023-03-17T06:27:27;33.00;52.70
18575;DHT22;9417;16.484;102.872;2023-03-17T06:29:42;33.10;52.80
18575;DHT22;9417;16.484;102.872;2023-03-17T06:31:49;33.10;52.60
18575;DHT22;9417;16.484;102.872;2023-03-17T06:34:23;33.20;51.80
18575;DHT22;9417;16.484;102.872;2023-03-17T06:36:47;33.20;51.40
18575;DHT22;9417;16.484;102.872;2023-03-17T06:38:55;33.30;52.00
18575;DHT22;9417;16.484;102.872;2023-03-17T06:41:03;33.30;52.30
18575;DHT22;9417;16.484;102.872;2023-03-17T06:43:11;33.40;52.20
18575;DHT22;9417;16.484;102.872;2023-03-17T06:45:21;33.50;52.10
18575;DHT22;9417;16.484;102.872;2023-03-17T06:47:35;33.50;51.70
18575;DHT22;9417;16.484;102.872;2023-03-17T06:49:44;33.50;51.30
18575;DHT22;9417;16.484;102.872;2023-03-17T06:51:51;33.60;51.60
18575;DHT22;9417;16.484;102.872;2023-03-17T06:54:11;33.50;51.90
18575;DHT22;9417;16.484;102.872;2023-03-17T06:56:30;33.50;51.90
18575;DHT22;9417;16.484;102.872;2023-03-17T06:58:38;33.50;51.60
18575;DHT22;9417;16.484;102.872;2023-03-17T07:00:51;33.50;51.80
18575;DHT22;9417;16.484;102.872;2023-03-17T07:03:05;33.60;50.90
18575;DHT22;9417;16.484;102.872;2023-03-17T07:05:23;33.60;51.30
18575;DHT22;9417;16.484;102.872;2023-03-17T07:07:41;33.60;51.20
18575;DHT22;9417;16.484;102.872;2023-03-17T07:09:54;33.60;51.10
18575;DHT22;9417;16.484;102.872;2023-03-17T07:12:05;33.60;50.40
18575;DHT22;9417;16.484;102.872;2023-03-17T07:14:12;33.60;50.10
18575;DHT22;9417;16.484;102.872;2023-03-17T07:16:30;33.50;50.30
18575;DHT22;9417;16.484;102.872;2023-03-17T07:18:42;33.40;51.40
18575;DHT22;9417;16.484;102.872;2023-03-17T07:21:00;33.40;50.60
18575;DHT22;9417;16.484;102.872;2023-03-17T07:23:14;33.40;50.30
18575;DHT22;9417;16.484;102.872;2023-03-17T07:25:25;33.40;49.80
18575;DHT22;9417;16.484;102.872;2023-03-17T07:27:34;33.50;49.70
18575;DHT22;9417;16.484;102.872;2023-03-17T07:29:44;33.50;50.40
18575;DHT22;9417;16.484;102.872;2023-03-17T07:32:02;33.60;50.30
18575;DHT22;9417;16.484;102.872;2023-03-17T07:34:11;33.70;50.00
18575;DHT22;9417;16.484;102.872;2023-03-17T07:36:37;33.70;50.20
18575;DHT22;9417;16.484;102.872;2023-03-17T07:38:53;33.70;50.60
18575;DHT22;9417;16.484;102.872;2023-03-17T07:41:08;33.70;50.40
18575;DHT22;9417;16.484;102.872;2023-03-17T07:43:16;33.80;50.10
18575;DHT22;9417;16.484;102.872;2023-03-17T07:45:29;33.80;49.90
18575;DHT22;9417;16.484;102.872;2023-03-17T07:47:52;33.90;49.30
18575;DHT22;9417;16.484;102.872;2023-03-17T07:50:00;33.90;49.50
18575;DHT22;9417;16.484;102.872;2023-03-17T07:52:08;34.00;49.50
18575;DHT22;9417;16.484;102.872;2023-03-17T07:54:17;34.00;49.50
18575;DHT22;9417;16.484;102.872;2023-03-17T07:56:25;34.00;49.40
18575;DHT22;9417;16.484;102.872;2023-03-17T07:58:34;34.00;49.00
18575;DHT22;9417;16.484;102.872;2023-03-17T08:00:45;34.00;48.80
18575;DHT22;9417;16.484;102.872;2023-03-17T08:02:57;34.00;48.70
18575;DHT22;9417;16.484;102.872;2023-03-17T08:05:14;34.00;48.60
18575;DHT22;9417;16.484;102.872;2023-03-17T08:07:22;34.00;48.70
18575;DHT22;9417;16.484;102.872;2023-03-17T08:09:30;34.00;48.80
18575;DHT22;9417;16.484;102.872;2023-03-17T08:11:44;34.00;48.40
18575;DHT22;9417;16.484;102.872;2023-03-17T08:13:56;34.00;48.20
18575;DHT22;9417;16.484;102.872;2023-03-17T08:16:12;34.00;47.60
18575;DHT22;9417;16.484;102.872;2023-03-17T08:18:23;33.90;47.50
18575;DHT22;9417;16.484;102.872;2023-03-17T08:20:31;33.90;47.80
18575;DHT22;9417;16.484;102.872;2023-03-17T08:22:38;33.90;47.90
18575;DHT22;9417;16.484;102.872;2023-03-17T08:24:56;33.80;47.90
18575;DHT22;9417;16.484;102.872;2023-03-17T08:27:21;33.80;48.10
18575;DHT22;9417;16.484;102.872;2023-03-17T08:29:41;33.90;47.90
18575;DHT22;9417;16.484;102.872;2023-03-17T08:31:49;33.80;47.80
18575;DHT22;9417;16.484;102.872;2023-03-17T08:34:03;33.90;47.80
18575;DHT22;9417;16.484;102.872;2023-03-17T08:36:11;33.90;47.30
18575;DHT22;9417;16.484;102.872;2023-03-17T08:38:19;33.90;47.90
18575;DHT22;9417;16.484;102.872;2023-03-17T08:40:29;33.90;48.10
18575;DHT22;9417;16.484;102.872;2023-03-17T08:42:55;33.80;47.10
18575;DHT22;9417;16.484;102.872;2023-03-17T08:45:07;33.70;47.80
18575;DHT22;9417;16.484;102.872;2023-03-17T08:47:16;33.70;48.00
18575;DHT22;9417;16.484;102.872;2023-03-17T08:49:26;33.70;47.60
18575;DHT22;9417;16.484;102.872;2023-03-17T08:51:39;33.60;47.80
18575;DHT22;9417;16.484;102.872;2023-03-17T08:53:56;33.60;47.60
18575;DHT22;9417;16.484;102.872;2023-03-17T08:56:16;33.60;47.60
18575;DHT22;9417;16.484;102.872;2023-03-17T08:58:25;33.70;47.80
18575;DHT22;9417;16.484;102.872;2023-03-17T09:00:39;33.70;47.50
18575;DHT22;9417;16.484;102.872;2023-03-17T09:02:48;33.70;47.50
18575;DHT22;9417;16.484;102.872;2023-03-17T09:05:11;33.70;47.90
18575;DHT22;9417;16.484;102.872;2023-03-17T09:07:21;33.70;48.40
18575;DHT22;9417;16.484;102.872;2023-03-17T09:09:32;33.60;47.90
18575;DHT22;9417;16.484;102.872;2023-03-17T09:11:57;33.60;47.50
18575;DHT22;9417;16.484;102.872;2023-03-17T09:14:23;33.60;47.30
18575;DHT22;9417;16.484;102.872;2023-03-17T09:16:46;33.50;47.10
18575;DHT22;9417;16.484;102.872;2023-03-17T09:19:08;33.50;47.20
18575;DHT22;9417;16.484;102.872;2023-03-17T09:21:17;33.40;47.90
18575;DHT22;9417;16.484;102.872;2023-03-17T09:23:38;33.30;48.70
18575;DHT22;9417;16.484;102.872;2023-03-17T09:25:52;33.20;49.30
18575;DHT22;9417;16.484;102.872;2023-03-17T09:28:12;33.10;49.70
18575;DHT22;9417;16.484;102.872;2023-03-17T09:30:19;33.10;49.40
18575;DHT22;9417;16.484;102.872;2023-03-17T09:32:27;33.10;49.00
18575;DHT22;9417;16.484;102.872;2023-03-17T09:34:34;33.10;49.30
18575;DHT22;9417;16.484;102.872;2023-03-17T09:36:44;33.10;49.20
18575;DHT22;9417;16.484;102.872;2023-03-17T09:38:51;33.10;49.00
18575;DHT22;9417;16.484;102.872;2023-03-17T09:41:02;33.10;50.00
18575;DHT22;9417;16.484;102.872;2023-03-17T09:43:22;33.00;50.60
18575;DHT22;9417;16.484;102.872;2023-03-17T09:45:38;32.90;51.60
18575;DHT22;9417;16.484;102.872;2023-03-17T09:50:42;32.80;49.90
18575;DHT22;9417;16.484;102.872;2023-03-17T09:52:55;32.80;49.90
18575;DHT22;9417;16.484;102.872;2023-03-17T09:55:24;32.80;50.10
18575;DHT22;9417;16.484;102.872;2023-03-17T09:57:34;32.80;49.60
18575;DHT22;9417;16.484;102.872;2023-03-17T09:59:43;32.70;49.90
18575;DHT22;9417;16.484;102.872;2023-03-17T10:01:52;32.70;50.10
18575;DHT22;9417;16.484;102.872;2023-03-17T10:04:00;32.70;50.30
18575;DHT22;9417;16.484;102.872;2023-03-17T10:06:35;32.70;50.50
18575;DHT22;9417;16.484;102.872;2023-03-17T10:08:53;32.70;50.50
18575;DHT22;9417;16.484;102.872;2023-03-17T10:11:20;32.60;51.00
18575;DHT22;9417;16.484;102.872;2023-03-17T10:13:45;32.60;51.30
18575;DHT22;9417;16.484;102.872;2023-03-17T10:15:57;32.60;51.50
18575;DHT22;9417;16.484;102.872;2023-03-17T10:18:23;32.50;51.10
18575;DHT22;9417;16.484;102.872;2023-03-17T10:20:35;32.50;51.40
18575;DHT22;9417;16.484;102.872;2023-03-17T10:22:46;32.50;51.60
18575;DHT22;9417;16.484;102.872;2023-03-17T10:25:13;32.50;51.70
18575;DHT22;9417;16.484;102.872;2023-03-17T10:27:35;32.40;51.80
18575;DHT22;9417;16.484;102.872;2023-03-17T10:29:44;32.40;51.90
18575;DHT22;9417;16.484;102.872;2023-03-17T10:31:54;32.40;51.90
18575;DHT22;9417;16.484;102.872;2023-03-17T10:34:18;32.30;52.00
18575;DHT22;9417;16.484;102.872;2023-03-17T10:36:52;32.30;52.00
18575;DHT22;9417;16.484;102.872;2023-03-17T10:39:04;32.30;51.90
18575;DHT22;9417;16.484;102.872;2023-03-17T10:41:25;32.30;52.00
18575;DHT22;9417;16.484;102.872;2023-03-17T10:43:43;32.20;51.90
18575;DHT22;9417;16.484;102.872;2023-03-17T10:45:58;32.20;51.70
18575;DHT22;9417;16.484;102.872;2023-03-17T10:48:09;32.20;51.50
18575;DHT22;9417;16.484;102.872;2023-03-17T10:50:20;32.10;51.30
18575;DHT22;9417;16.484;102.872;2023-03-17T10:52:41;32.10;51.10
18575;DHT22;9417;16.484;102.872;2023-03-17T10:54:50;32.00;51.20
18575;DHT22;9417;16.484;102.872;2023-03-17T10:57:05;32.00;51.40
18575;DHT22;9417;16.484;102.872;2023-03-17T10:59:21;32.00;51.60
18575;DHT22;9417;16.484;102.872;2023-03-17T11:01:36;31.90;51.90
18575;DHT22;9417;16.484;102.872;2023-03-17T11:03:54;31.90;52.10
18575;DHT22;9417;16.484;102.872;2023-03-17T11:06:24;31.80;52.60
18575;DHT22;9417;16.484;102.872;2023-03-17T11:08:40;31.70;52.80
18575;DHT22;9417;16.484;102.872;2023-03-17T11:10:55;31.70;53.20
18575;DHT22;9417;16.484;102.872;2023-03-17T11:13:04;31.60;53.70
18575;DHT22;9417;16.484;102.872;2023-03-17T11:15:14;31.50;54.00
18575;DHT22;9417;16.484;102.872;2023-03-17T11:17:38;31.50;54.40
18575;DHT22;9417;16.484;102.872;2023-03-17T11:20:11;31.40;55.00
18575;DHT22;9417;16.484;102.872;2023-03-17T11:22:30;31.30;55.10
18575;DHT22;9417;16.484;102.872;2023-03-17T11:24:47;31.30;55.10
18575;DHT22;9417;16.484;102.872;2023-03-17T11:27:01;31.20;55.30
18575;DHT22;9417;16.484;102.872;2023-03-17T11:29:21;31.20;55.60
18575;DHT22;9417;16.484;102.872;2023-03-17T11:31:33;31.10;55.90
18575;DHT22;9417;16.484;102.872;2023-03-17T11:33:52;31.00;56.00
18575;DHT22;9417;16.484;102.872;2023-03-17T11:36:10;31.00;56.40
18575;DHT22;9417;16.484;102.872;2023-03-17T11:38:37;31.00;56.40
18575;DHT22;9417;16.484;102.872;2023-03-17T11:44:38;30.90;56.70
18575;DHT22;9417;16.484;102.872;2023-03-17T11:47:15;30.90;57.10
18575;DHT22;9417;16.484;102.872;2023-03-17T11:49:50;30.80;57.10
18575;DHT22;9417;16.484;102.872;2023-03-17T11:52:08;30.80;57.30
18575;DHT22;9417;16.484;102.872;2023-03-17T11:54:25;30.70;57.70
18575;DHT22;9417;16.484;102.872;2023-03-17T11:56:48;30.70;58.00
18575;DHT22;9417;16.484;102.872;2023-03-17T11:59:22;30.60;58.20
18575;DHT22;9417;16.484;102.872;2023-03-17T12:01:51;30.60;58.80
18575;DHT22;9417;16.484;102.872;2023-03-17T12:04:10;30.50;58.70
18575;DHT22;9417;16.484;102.872;2023-03-17T12:06:25;30.40;58.90
18575;DHT22;9417;16.484;102.872;2023-03-17T12:08:38;30.30;59.50
18575;DHT22;9417;16.484;102.872;2023-03-17T12:10:53;30.20;59.90
18575;DHT22;9417;16.484;102.872;2023-03-17T12:13:15;30.20;60.00
18575;DHT22;9417;16.484;102.872;2023-03-17T12:15:50;30.10;60.00
18575;DHT22;9417;16.484;102.872;2023-03-17T12:18:03;30.10;60.10
18575;DHT22;9417;16.484;102.872;2023-03-17T12:20:20;30.00;60.30
18575;DHT22;9417;16.484;102.872;2023-03-17T12:22:39;30.00;60.80
18575;DHT22;9417;16.484;102.872;2023-03-17T12:25:12;29.90;60.90
18575;DHT22;9417;16.484;102.872;2023-03-17T12:27:27;29.80;61.60
18575;DHT22;9417;16.484;102.872;2023-03-17T12:29:41;29.70;62.10
18575;DHT22;9417;16.484;102.872;2023-03-17T12:32:15;29.60;62.70
18575;DHT22;9417;16.484;102.872;2023-03-17T12:34:44;29.40;63.70
18575;DHT22;9417;16.484;102.872;2023-03-17T12:37:07;29.40;64.60
18575;DHT22;9417;16.484;102.872;2023-03-17T12:39:31;29.30;65.00
18575;DHT22;9417;16.484;102.872;2023-03-17T12:42:08;29.20;65.00
18575;DHT22;9417;16.484;102.872;2023-03-17T12:47:15;29.10;66.60
18575;DHT22;9417;16.484;102.872;2023-03-17T12:50:00;29.00;67.40
18575;DHT22;9417;16.484;102.872;2023-03-17T12:52:29;28.90;67.60
18575;DHT22;9417;16.484;102.872;2023-03-17T12:54:48;28.80;68.20
18575;DHT22;9417;16.484;102.872;2023-03-17T12:57:13;28.80;69.30
18575;DHT22;9417;16.484;102.872;2023-03-17T12:59:29;28.80;69.40
18575;DHT22;9417;16.484;102.872;2023-03-17T13:01:55;28.80;69.60
18575;DHT22;9417;16.484;102.872;2023-03-17T13:04:16;28.80;69.70
18575;DHT22;9417;16.484;102.872;2023-03-17T13:06:39;28.70;69.70
18575;DHT22;9417;16.484;102.872;2023-03-17T13:08:53;28.60;69.60
18575;DHT22;9417;16.484;102.872;2023-03-17T13:11:26;28.60;69.60
18575;DHT22;9417;16.484;102.872;2023-03-17T13:13:46;28.70;70.20
18575;DHT22;9417;16.484;102.872;2023-03-17T13:16:28;28.60;69.70
18575;DHT22;9417;16.484;102.872;2023-03-17T13:18:48;28.60;70.30
18575;DHT22;9417;16.484;102.872;2023-03-17T13:21:28;28.60;70.20
18575;DHT22;9417;16.484;102.872;2023-03-17T13:24:19;28.50;71.10
18575;DHT22;9417;16.484;102.872;2023-03-17T13:26:56;28.50;71.00
18575;DHT22;9417;16.484;102.872;2023-03-17T13:29:22;28.50;70.60
18575;DHT22;9417;16.484;102.872;2023-03-17T13:31:41;28.50;70.50
18575;DHT22;9417;16.484;102.872;2023-03-17T13:34:12;28.40;70.40
18575;DHT22;9417;16.484;102.872;2023-03-17T13:36:41;28.40;70.80
18575;DHT22;9417;16.484;102.872;2023-03-17T13:39:28;28.30;71.30
18575;DHT22;9417;16.484;102.872;2023-03-17T13:45:12;28.20;70.40
18575;DHT22;9417;16.484;102.872;2023-03-17T13:47:40;28.20;70.50
18575;DHT22;9417;16.484;102.872;2023-03-17T13:50:00;28.30;70.50
18575;DHT22;9417;16.484;102.872;2023-03-17T13:52:14;28.10;70.50
18575;DHT22;9417;16.484;102.872;2023-03-17T13:54:31;28.10;70.50
18575;DHT22;9417;16.484;102.872;2023-03-17T13:56:52;28.00;70.90
18575;DHT22;9417;16.484;102.872;2023-03-17T13:59:11;27.90;71.10
18575;DHT22;9417;16.484;102.872;2023-03-17T14:01:37;27.90;73.30
18575;DHT22;9417;16.484;102.872;2023-03-17T14:03:55;27.90;74.20
18575;DHT22;9417;16.484;102.872;2023-03-17T14:06:09;27.80;73.40
18575;DHT22;9417;16.484;102.872;2023-03-17T14:08:35;27.80;72.80
18575;DHT22;9417;16.484;102.872;2023-03-17T14:10:52;27.70;72.50